sensor_id;sensor_type;location;lat;lon;timestamp;P1;durP1;ratioP1;P2;durP2;ratioP2
38037;SDS011;23843;51.320;12.340;2022-07-06T00:00:39;0.10;;;0.10;;
38037;SDS011;23843;51.320;12.340;2022-07-06T00:03:05;0.10;;;0.10;;
38037;SDS011;23843;51.320;12.340;2022-07-06T00:05:30;0.10;;;0.10;;
38037;SDS011;23843;51.320;12.340;2022-07-06T00:07:56;0.10;;;0.10;;
38037;SDS011;23843;51.320;12.340;2022-07-06T00:10:21;0.10;;;0.10;;
38037;SDS011;23843;51.320;12.340;2022-07-06T00:12:47;0.05;;;0.05;;
38037;SDS011;23843;51.320;12.340;2022-07-06T00:15:13;0.35;;;0.35;;
38037;SDS011;23843;51.320;12.340;2022-07-06T00:17:39;0.00;;;0.00;;
38037;SDS011;23843;51.320;12.340;2022-07-06T00:20:05;0.00;;;0.00;;
38037;SDS011;23843;51.320;12.340;2022-07-06T00:22:33;0.00;;;0.00;;
38037;SDS011;23843;51.320;12.340;2022-07-06T00:24:58;0.60;;;0.60;;
38037;SDS011;23843;51.320;12.340;2022-07-06T00:27:24;0.00;;;0.00;;
38037;SDS011;23843;51.320;12.340;2022-07-06T00:29:49;0.00;;;0.00;;
38037;SDS011;23843;51.320;12.340;2022-07-06T00:32:16;0.20;;;0.10;;
38037;SDS011;23843;51.320;12.340;2022-07-06T00:34:41;0.50;;;0.50;;
38037;SDS011;23843;51.320;12.340;2022-07-06T00:37:07;0.10;;;0.10;;
38037;SDS011;23843;51.320;12.340;2022-07-06T00:39:32;0.10;;;0.10;;
38037;SDS011;23843;51.320;12.340;2022-07-06T00:41:58;0.10;;;0.10;;
38037;SDS011;23843;51.320;12.340;2022-07-06T00:44:24;0.00;;;0.00;;
38037;SDS011;23843;51.320;12.340;2022-07-06T00:46:49;0.00;;;0.00;;
38037;SDS011;23843;51.320;12.340;2022-07-06T00:49:19;0.10;;;0.10;;
38037;SDS011;23843;51.320;12.340;2022-07-06T00:51:44;0.10;;;0.10;;
38037;SDS011;23843;51.320;12.340;2022-07-06T00:54:09;0.10;;;0.10;;
38037;SDS011;23843;51.320;12.340;2022-07-06T00:56:35;0.10;;;0.10;;
38037;SDS011;23843;51.320;12.340;2022-07-06T00:59:01;0.10;;;0.10;;
38037;SDS011;23843;51.320;12.340;2022-07-06T01:01:27;0.10;;;0.10;;
38037;SDS011;23843;51.320;12.340;2022-07-06T01:03:53;0.13;;;0.13;;
38037;SDS011;23843;51.320;12.340;2022-07-06T01:06:23;0.10;;;0.10;;
38037;SDS011;23843;51.320;12.340;2022-07-06T01:08:49;0.13;;;0.13;;
38037;SDS011;23843;51.320;12.340;2022-07-06T01:11:15;0.17;;;0.17;;
38037;SDS011;23843;51.320;12.340;2022-07-06T01:13:42;0.20;;;0.20;;
38037;SDS011;23843;51.320;12.340;2022-07-06T01:16:07;0.10;;;0.10;;
38037;SDS011;23843;51.320;12.340;2022-07-06T01:18:33;0.15;;;0.15;;
38037;SDS011;23843;51.320;12.340;2022-07-06T01:21:09;0.20;;;0.20;;
38037;SDS011;23843;51.320;12.340;2022-07-06T01:23:39;0.10;;;0.10;;
38037;SDS011;23843;51.320;12.340;2022-07-06T01:26:06;0.10;;;0.10;;
38037;SDS011;23843;51.320;12.340;2022-07-06T01:28:34;0.20;;;0.20;;
38037;SDS011;23843;51.320;12.340;2022-07-06T01:31:00;0.20;;;0.20;;
38037;SDS011;23843;51.320;12.340;2022-07-06T01:33:25;0.20;;;0.20;;
38037;SDS011;23843;51.320;12.340;2022-07-06T01:35:51;0.20;;;0.20;;
38037;SDS011;23843;51.320;12.340;2022-07-06T01:38:18;0.40;;;0.20;;
38037;SDS011;23843;51.320;12.340;2022-07-06T01:40:43;0.17;;;0.17;;
38037;SDS011;23843;51.320;12.340;2022-07-06T01:43:09;0.35;;;0.30;;
38037;SDS011;23843;51.320;12.340;2022-07-06T01:45:34;0.20;;;0.20;;
38037;SDS011;23843;51.320;12.340;2022-07-06T01:47:59;0.20;;;0.20;;
38037;SDS011;23843;51.320;12.340;2022-07-06T01:50:25;0.30;;;0.30;;
38037;SDS011;23843;51.320;12.340;2022-07-06T01:52:51;0.52;;;0.40;;
38037;SDS011;23843;51.320;12.340;2022-07-06T01:55:17;0.30;;;0.30;;
38037;SDS011;23843;51.320;12.340;2022-07-06T01:57:43;0.30;;;0.30;;
38037;SDS011;23843;51.320;12.340;2022-07-06T02:00:08;0.30;;;0.30;;
38037;SDS011;23843;51.320;12.340;2022-07-06T02:02:34;0.20;;;0.20;;
38037;SDS011;23843;51.320;12.340;2022-07-06T02:05:00;0.22;;;0.22;;
38037;SDS011;23843;51.320;12.340;2022-07-06T02:07:25;0.30;;;0.30;;
38037;SDS011;23843;51.320;12.340;2022-07-06T02:09:51;0.22;;;0.22;;
38037;SDS011;23843;51.320;12.340;2022-07-06T02:12:18;0.85;;;0.40;;
38037;SDS011;23843;51.320;12.340;2022-07-06T02:14:43;0.30;;;0.30;;
38037;SDS011;23843;51.320;12.340;2022-07-06T02:17:09;0.25;;;0.25;;
38037;SDS011;23843;51.320;12.340;2022-07-06T02:19:34;0.20;;;0.20;;
38037;SDS011;23843;51.320;12.340;2022-07-06T02:21:59;0.30;;;0.30;;
38037;SDS011;23843;51.320;12.340;2022-07-06T02:24:25;0.38;;;0.30;;
38037;SDS011;23843;51.320;12.340;2022-07-06T02:26:50;1.15;;;0.50;;
38037;SDS011;23843;51.320;12.340;2022-07-06T02:29:17;0.60;;;0.60;;
38037;SDS011;23843;51.320;12.340;2022-07-06T02:31:42;0.57;;;0.28;;
38037;SDS011;23843;51.320;12.340;2022-07-06T02:34:11;0.30;;;0.30;;
38037;SDS011;23843;51.320;12.340;2022-07-06T02:36:36;0.47;;;0.43;;
38037;SDS011;23843;51.320;12.340;2022-07-06T02:39:02;0.20;;;0.20;;
38037;SDS011;23843;51.320;12.340;2022-07-06T02:41:27;0.50;;;0.50;;
38037;SDS011;23843;51.320;12.340;2022-07-06T02:43:53;0.98;;;0.98;;
38037;SDS011;23843;51.320;12.340;2022-07-06T02:46:20;0.98;;;0.50;;
38037;SDS011;23843;51.320;12.340;2022-07-06T02:48:45;0.40;;;0.30;;
38037;SDS011;23843;51.320;12.340;2022-07-06T02:51:11;0.30;;;0.30;;
38037;SDS011;23843;51.320;12.340;2022-07-06T02:53:36;0.25;;;0.20;;
38037;SDS011;23843;51.320;12.340;2022-07-06T02:56:02;0.40;;;0.30;;
38037;SDS011;23843;51.320;12.340;2022-07-06T02:58:27;0.20;;;0.20;;
38037;SDS011;23843;51.320;12.340;2022-07-06T03:00:53;0.20;;;0.20;;
38037;SDS011;23843;51.320;12.340;2022-07-06T03:03:19;0.40;;;0.40;;
38037;SDS011;23843;51.320;12.340;2022-07-06T03:05:45;0.30;;;0.30;;
38037;SDS011;23843;51.320;12.340;2022-07-06T03:08:10;0.20;;;0.20;;
38037;SDS011;23843;51.320;12.340;2022-07-06T03:10:36;0.30;;;0.30;;
38037;SDS011;23843;51.320;12.340;2022-07-06T03:13:01;0.25;;;0.25;;
38037;SDS011;23843;51.320;12.340;2022-07-06T03:15:27;0.20;;;0.20;;
38037;SDS011;23843;51.320;12.340;2022-07-06T03:17:52;0.22;;;0.22;;
38037;SDS011;23843;51.320;12.340;2022-07-06T03:20:19;0.65;;;0.40;;
38037;SDS011;23843;51.320;12.340;2022-07-06T03:22:45;0.30;;;0.30;;
38037;SDS011;23843;51.320;12.340;2022-07-06T03:25:10;0.30;;;0.30;;
38037;SDS011;23843;51.320;12.340;2022-07-06T03:27:36;0.20;;;0.20;;
38037;SDS011;23843;51.320;12.340;2022-07-06T03:30:01;0.43;;;0.30;;
38037;SDS011;23843;51.320;12.340;2022-07-06T03:32:27;0.22;;;0.20;;
38037;SDS011;23843;51.320;12.340;2022-07-06T03:34:52;0.10;;;0.10;;
38037;SDS011;23843;51.320;12.340;2022-07-06T03:37:19;0.43;;;0.20;;
38037;SDS011;23843;51.320;12.340;2022-07-06T03:39:45;0.22;;;0.13;;
38037;SDS011;23843;51.320;12.340;2022-07-06T03:42:10;0.10;;;0.10;;
38037;SDS011;23843;51.320;12.340;2022-07-06T03:44:35;0.20;;;0.20;;
38037;SDS011;23843;51.320;12.340;2022-07-06T03:47:01;0.30;;;0.20;;
38037;SDS011;23843;51.320;12.340;2022-07-06T03:49:26;0.10;;;0.10;;
38037;SDS011;23843;51.320;12.340;2022-07-06T03:51:52;0.20;;;0.20;;
38037;SDS011;23843;51.320;12.340;2022-07-06T03:54:19;0.22;;;0.20;;
38037;SDS011;23843;51.320;12.340;2022-07-06T03:56:44;0.30;;;0.30;;
38037;SDS011;23843;51.320;12.340;2022-07-06T03:59:10;0.20;;;0.20;;
38037;SDS011;23843;51.320;12.340;2022-07-06T04:01:35;0.45;;;0.20;;
38037;SDS011;23843;51.320;12.340;2022-07-06T04:04:01;0.20;;;0.20;;
38037;SDS011;23843;51.320;12.340;2022-07-06T04:06:26;0.20;;;0.20;;
38037;SDS011;23843;51.320;12.340;2022-07-06T04:08:51;0.47;;;0.47;;
38037;SDS011;23843;51.320;12.340;2022-07-06T04:11:20;0.35;;;0.20;;
38037;SDS011;23843;51.320;12.340;2022-07-06T04:13:46;0.47;;;0.47;;
38037;SDS011;23843;51.320;12.340;2022-07-06T04:16:11;0.20;;;0.20;;
38037;SDS011;23843;51.320;12.340;2022-07-06T04:18:37;0.20;;;0.20;;
38037;SDS011;23843;51.320;12.340;2022-07-06T04:21:02;0.73;;;0.20;;
38037;SDS011;23843;51.320;12.340;2022-07-06T04:23:28;0.10;;;0.10;;
38037;SDS011;23843;51.320;12.340;2022-07-06T04:25:53;0.28;;;0.28;;
38037;SDS011;23843;51.320;12.340;2022-07-06T04:28:23;0.10;;;0.10;;
38037;SDS011;23843;51.320;12.340;2022-07-06T04:30:48;0.30;;;0.20;;
38037;SDS011;23843;51.320;12.340;2022-07-06T04:33:14;0.10;;;0.10;;
38037;SDS011;23843;51.320;12.340;2022-07-06T04:35:41;0.25;;;0.20;;
38037;SDS011;23843;51.320;12.340;2022-07-06T04:38:12;0.30;;;0.30;;
38037;SDS011;23843;51.320;12.340;2022-07-06T04:40:38;0.20;;;0.20;;
38037;SDS011;23843;51.320;12.340;2022-07-06T04:43:04;0.77;;;0.77;;
38037;SDS011;23843;51.320;12.340;2022-07-06T04:45:33;0.20;;;0.20;;
38037;SDS011;23843;51.320;12.340;2022-07-06T04:47:59;0.20;;;0.20;;
38037;SDS011;23843;51.320;12.340;2022-07-06T04:50:24;0.20;;;0.20;;
38037;SDS011;23843;51.320;12.340;2022-07-06T04:52:50;1.83;;;0.30;;
38037;SDS011;23843;51.320;12.340;2022-07-06T04:55:21;0.20;;;0.20;;
38037;SDS011;23843;51.320;12.340;2022-07-06T04:57:47;0.40;;;0.20;;
38037;SDS011;23843;51.320;12.340;2022-07-06T05:00:13;0.20;;;0.20;;
38037;SDS011;23843;51.320;12.340;2022-07-06T05:02:40;0.45;;;0.43;;
38037;SDS011;23843;51.320;12.340;2022-07-06T05:05:05;0.57;;;0.30;;
38037;SDS011;23843;51.320;12.340;2022-07-06T05:07:31;0.30;;;0.30;;
38037;SDS011;23843;51.320;12.340;2022-07-06T05:09:57;0.43;;;0.43;;
38037;SDS011;23843;51.320;12.340;2022-07-06T05:12:22;0.85;;;0.45;;
38037;SDS011;23843;51.320;12.340;2022-07-06T05:14:47;0.57;;;0.40;;
38037;SDS011;23843;51.320;12.340;2022-07-06T05:17:13;0.55;;;0.50;;
38037;SDS011;23843;51.320;12.340;2022-07-06T05:19:40;0.90;;;0.90;;
38037;SDS011;23843;51.320;12.340;2022-07-06T05:22:05;0.70;;;0.40;;
38037;SDS011;23843;51.320;12.340;2022-07-06T05:24:31;0.30;;;0.30;;
38037;SDS011;23843;51.320;12.340;2022-07-06T05:26:56;0.30;;;0.30;;
38037;SDS011;23843;51.320;12.340;2022-07-06T05:29:21;0.75;;;0.50;;
38037;SDS011;23843;51.320;12.340;2022-07-06T05:31:47;0.95;;;0.30;;
38037;SDS011;23843;51.320;12.340;2022-07-06T05:34:12;0.40;;;0.40;;
38037;SDS011;23843;51.320;12.340;2022-07-06T05:36:39;0.80;;;0.30;;
38037;SDS011;23843;51.320;12.340;2022-07-06T05:39:07;0.40;;;0.40;;
38037;SDS011;23843;51.320;12.340;2022-07-06T05:41:34;0.85;;;0.85;;
38037;SDS011;23843;51.320;12.340;2022-07-06T05:44:00;0.40;;;0.40;;
38037;SDS011;23843;51.320;12.340;2022-07-06T05:46:25;0.40;;;0.40;;
38037;SDS011;23843;51.320;12.340;2022-07-06T05:48:51;0.88;;;0.45;;
38037;SDS011;23843;51.320;12.340;2022-07-06T05:51:16;0.38;;;0.38;;
38037;SDS011;23843;51.320;12.340;2022-07-06T05:53:46;0.75;;;0.30;;
38037;SDS011;23843;51.320;12.340;2022-07-06T05:56:11;0.32;;;0.30;;
38037;SDS011;23843;51.320;12.340;2022-07-06T05:58:36;0.90;;;0.90;;
38037;SDS011;23843;51.320;12.340;2022-07-06T06:01:02;0.55;;;0.38;;
38037;SDS011;23843;51.320;12.340;2022-07-06T06:03:27;0.70;;;0.40;;
38037;SDS011;23843;51.320;12.340;2022-07-06T06:05:53;0.40;;;0.30;;
38037;SDS011;23843;51.320;12.340;2022-07-06T06:08:20;0.10;;;0.10;;
38037;SDS011;23843;51.320;12.340;2022-07-06T06:10:47;0.40;;;0.40;;
38037;SDS011;23843;51.320;12.340;2022-07-06T06:13:14;0.60;;;0.40;;
38037;SDS011;23843;51.320;12.340;2022-07-06T06:15:39;0.40;;;0.30;;
38037;SDS011;23843;51.320;12.340;2022-07-06T06:18:05;0.35;;;0.35;;
38037;SDS011;23843;51.320;12.340;2022-07-06T06:20:30;2.72;;;0.40;;
38037;SDS011;23843;51.320;12.340;2022-07-06T06:22:56;0.45;;;0.45;;
38037;SDS011;23843;51.320;12.340;2022-07-06T06:25:27;0.40;;;0.40;;
38037;SDS011;23843;51.320;12.340;2022-07-06T06:27:54;0.40;;;0.40;;
38037;SDS011;23843;51.320;12.340;2022-07-06T06:30:20;0.88;;;0.65;;
38037;SDS011;23843;51.320;12.340;2022-07-06T06:32:45;0.47;;;0.47;;
38037;SDS011;23843;51.320;12.340;2022-07-06T06:35:11;1.10;;;0.85;;
38037;SDS011;23843;51.320;12.340;2022-07-06T06:37:36;0.40;;;0.40;;
38037;SDS011;23843;51.320;12.340;2022-07-06T06:40:04;0.50;;;0.50;;
38037;SDS011;23843;51.320;12.340;2022-07-06T06:42:31;0.55;;;0.30;;
38037;SDS011;23843;51.320;12.340;2022-07-06T06:44:58;0.40;;;0.40;;
38037;SDS011;23843;51.320;12.340;2022-07-06T06:47:23;0.75;;;0.40;;
38037;SDS011;23843;51.320;12.340;2022-07-06T06:49:49;0.40;;;0.40;;
38037;SDS011;23843;51.320;12.340;2022-07-06T06:52:14;0.80;;;0.60;;
38037;SDS011;23843;51.320;12.340;2022-07-06T06:54:40;0.40;;;0.40;;
38037;SDS011;23843;51.320;12.340;2022-07-06T06:57:05;0.45;;;0.40;;
38037;SDS011;23843;51.320;12.340;2022-07-06T06:59:31;0.85;;;0.85;;
38037;SDS011;23843;51.320;12.340;2022-07-06T07:01:57;0.63;;;0.50;;
38037;SDS011;23843;51.320;12.340;2022-07-06T07:04:23;0.40;;;0.40;;
38037;SDS011;23843;51.320;12.340;2022-07-06T07:06:48;0.60;;;0.45;;
38037;SDS011;23843;51.320;12.340;2022-07-06T07:09:14;0.50;;;0.50;;
38037;SDS011;23843;51.320;12.340;2022-07-06T07:11:39;0.40;;;0.40;;
38037;SDS011;23843;51.320;12.340;2022-07-06T07:14:04;0.80;;;0.80;;
38037;SDS011;23843;51.320;12.340;2022-07-06T07:16:30;0.38;;;0.38;;
38037;SDS011;23843;51.320;12.340;2022-07-06T07:18:57;0.43;;;0.43;;
38037;SDS011;23843;51.320;12.340;2022-07-06T07:21:22;0.30;;;0.30;;
38037;SDS011;23843;51.320;12.340;2022-07-06T07:23:47;0.30;;;0.30;;
38037;SDS011;23843;51.320;12.340;2022-07-06T07:26:13;0.60;;;0.60;;
38037;SDS011;23843;51.320;12.340;2022-07-06T07:28:38;0.60;;;0.60;;
38037;SDS011;23843;51.320;12.340;2022-07-06T07:31:04;0.40;;;0.40;;
38037;SDS011;23843;51.320;12.340;2022-07-06T07:33:30;1.55;;;0.50;;
38037;SDS011;23843;51.320;12.340;2022-07-06T07:35:57;0.50;;;0.50;;
38037;SDS011;23843;51.320;12.340;2022-07-06T07:38:22;0.50;;;0.50;;
38037;SDS011;23843;51.320;12.340;2022-07-06T07:40:48;0.60;;;0.47;;
38037;SDS011;23843;51.320;12.340;2022-07-06T07:43:13;0.60;;;0.60;;
38037;SDS011;23843;51.320;12.340;2022-07-06T07:45:39;0.85;;;0.70;;
38037;SDS011;23843;51.320;12.340;2022-07-06T07:48:04;0.70;;;0.60;;
38037;SDS011;23843;51.320;12.340;2022-07-06T07:50:30;1.63;;;0.70;;
38037;SDS011;23843;51.320;12.340;2022-07-06T07:52:57;0.70;;;0.60;;
38037;SDS011;23843;51.320;12.340;2022-07-06T07:55:23;0.73;;;0.50;;
38037;SDS011;23843;51.320;12.340;2022-07-06T07:57:48;0.60;;;0.40;;
38037;SDS011;23843;51.320;12.340;2022-07-06T08:00:14;0.65;;;0.50;;
38037;SDS011;23843;51.320;12.340;2022-07-06T08:02:40;0.40;;;0.40;;
38037;SDS011;23843;51.320;12.340;2022-07-06T08:05:06;0.73;;;0.73;;
38037;SDS011;23843;51.320;12.340;2022-07-06T08:07:32;0.73;;;0.70;;
38037;SDS011;23843;51.320;12.340;2022-07-06T08:09:59;2.45;;;1.02;;
38037;SDS011;23843;51.320;12.340;2022-07-06T08:12:24;1.00;;;0.68;;
38037;SDS011;23843;51.320;12.340;2022-07-06T08:14:50;1.27;;;0.77;;
38037;SDS011;23843;51.320;12.340;2022-07-06T08:17:15;0.50;;;0.50;;
38037;SDS011;23843;51.320;12.340;2022-07-06T08:19:41;0.40;;;0.40;;
38037;SDS011;23843;51.320;12.340;2022-07-06T08:22:06;0.50;;;0.50;;
38037;SDS011;23843;51.320;12.340;2022-07-06T08:24:31;1.00;;;0.50;;
38037;SDS011;23843;51.320;12.340;2022-07-06T08:26:58;1.25;;;0.75;;
38037;SDS011;23843;51.320;12.340;2022-07-06T08:29:24;1.88;;;0.70;;
38037;SDS011;23843;51.320;12.340;2022-07-06T08:31:49;0.50;;;0.50;;
38037;SDS011;23843;51.320;12.340;2022-07-06T08:34:15;1.10;;;1.00;;
38037;SDS011;23843;51.320;12.340;2022-07-06T08:36:40;0.82;;;0.70;;
38037;SDS011;23843;51.320;12.340;2022-07-06T08:39:06;0.70;;;0.50;;
38037;SDS011;23843;51.320;12.340;2022-07-06T08:41:31;0.57;;;0.50;;
38037;SDS011;23843;51.320;12.340;2022-07-06T08:43:58;0.68;;;0.60;;
38037;SDS011;23843;51.320;12.340;2022-07-06T08:46:23;0.47;;;0.47;;
38037;SDS011;23843;51.320;12.340;2022-07-06T08:48:49;1.48;;;0.70;;
38037;SDS011;23843;51.320;12.340;2022-07-06T08:51:15;0.45;;;0.45;;
38037;SDS011;23843;51.320;12.340;2022-07-06T08:53:41;1.05;;;0.93;;
38037;SDS011;23843;51.320;12.340;2022-07-06T08:56:07;0.90;;;0.90;;
38037;SDS011;23843;51.320;12.340;2022-07-06T08:58:33;0.68;;;0.68;;
38037;SDS011;23843;51.320;12.340;2022-07-06T09:01:01;0.60;;;0.60;;
38037;SDS011;23843;51.320;12.340;2022-07-06T09:03:28;0.90;;;0.90;;
38037;SDS011;23843;51.320;12.340;2022-07-06T09:05:55;1.00;;;0.82;;
38037;SDS011;23843;51.320;12.340;2022-07-06T09:08:24;0.80;;;0.80;;
38037;SDS011;23843;51.320;12.340;2022-07-06T09:10:52;0.73;;;0.73;;
38037;SDS011;23843;51.320;12.340;2022-07-06T09:13:17;1.15;;;1.08;;
38037;SDS011;23843;51.320;12.340;2022-07-06T09:15:43;1.15;;;1.05;;
38037;SDS011;23843;51.320;12.340;2022-07-06T09:18:09;0.70;;;0.70;;
38037;SDS011;23843;51.320;12.340;2022-07-06T09:20:38;1.00;;;1.00;;
38037;SDS011;23843;51.320;12.340;2022-07-06T09:23:05;0.90;;;0.90;;
38037;SDS011;23843;51.320;12.340;2022-07-06T09:25:31;1.30;;;0.80;;
38037;SDS011;23843;51.320;12.340;2022-07-06T09:27:57;0.65;;;0.60;;
38037;SDS011;23843;51.320;12.340;2022-07-06T09:30:24;0.80;;;0.70;;
38037;SDS011;23843;51.320;12.340;2022-07-06T09:32:52;0.70;;;0.70;;
38037;SDS011;23843;51.320;12.340;2022-07-06T09:35:21;0.50;;;0.50;;
38037;SDS011;23843;51.320;12.340;2022-07-06T09:37:51;0.65;;;0.65;;
38037;SDS011;23843;51.320;12.340;2022-07-06T09:40:25;0.93;;;0.60;;
38037;SDS011;23843;51.320;12.340;2022-07-06T09:42:50;0.60;;;0.60;;
38037;SDS011;23843;51.320;12.340;2022-07-06T09:45:19;0.50;;;0.50;;
38037;SDS011;23843;51.320;12.340;2022-07-06T09:47:46;0.68;;;0.68;;
38037;SDS011;23843;51.320;12.340;2022-07-06T09:50:14;0.88;;;0.50;;
38037;SDS011;23843;51.320;12.340;2022-07-06T09:52:41;0.93;;;0.80;;
38037;SDS011;23843;51.320;12.340;2022-07-06T09:55:18;0.50;;;0.50;;
38037;SDS011;23843;51.320;12.340;2022-07-06T09:57:55;0.60;;;0.50;;
38037;SDS011;23843;51.320;12.340;2022-07-06T10:00:21;1.23;;;0.80;;
38037;SDS011;23843;51.320;12.340;2022-07-06T10:02:46;0.70;;;0.55;;
38037;SDS011;23843;51.320;12.340;2022-07-06T10:05:12;0.40;;;0.40;;
38037;SDS011;23843;51.320;12.340;2022-07-06T10:07:41;0.45;;;0.45;;
38037;SDS011;23843;51.320;12.340;2022-07-06T10:10:07;0.68;;;0.50;;
38037;SDS011;23843;51.320;12.340;2022-07-06T10:12:33;0.60;;;0.60;;
38037;SDS011;23843;51.320;12.340;2022-07-06T10:15:01;0.40;;;0.40;;
38037;SDS011;23843;51.320;12.340;2022-07-06T10:17:27;0.40;;;0.40;;
38037;SDS011;23843;51.320;12.340;2022-07-06T10:19:52;0.50;;;0.50;;
38037;SDS011;23843;51.320;12.340;2022-07-06T10:22:19;0.70;;;0.50;;
38037;SDS011;23843;51.320;12.340;2022-07-06T10:24:46;0.65;;;0.40;;
38037;SDS011;23843;51.320;12.340;2022-07-06T10:27:14;0.43;;;0.38;;
38037;SDS011;23843;51.320;12.340;2022-07-06T10:29:40;0.55;;;0.50;;
38037;SDS011;23843;51.320;12.340;2022-07-06T10:32:05;0.40;;;0.40;;
38037;SDS011;23843;51.320;12.340;2022-07-06T10:34:32;2.03;;;0.35;;
38037;SDS011;23843;51.320;12.340;2022-07-06T10:36:58;0.40;;;0.40;;
38037;SDS011;23843;51.320;12.340;2022-07-06T10:42:20;0.52;;;0.50;;
38037;SDS011;23843;51.320;12.340;2022-07-06T10:45:04;1.85;;;0.88;;
38037;SDS011;23843;51.320;12.340;2022-07-06T10:47:30;0.40;;;0.40;;
38037;SDS011;23843;51.320;12.340;2022-07-06T10:49:58;0.50;;;0.50;;
38037;SDS011;23843;51.320;12.340;2022-07-06T10:52:29;0.55;;;0.50;;
38037;SDS011;23843;51.320;12.340;2022-07-06T10:55:22;0.60;;;0.60;;
38037;SDS011;23843;51.320;12.340;2022-07-06T10:57:54;0.40;;;0.40;;
38037;SDS011;23843;51.320;12.340;2022-07-06T11:00:20;0.50;;;0.50;;
38037;SDS011;23843;51.320;12.340;2022-07-06T11:02:45;0.40;;;0.40;;
38037;SDS011;23843;51.320;12.340;2022-07-06T11:05:11;0.52;;;0.50;;
38037;SDS011;23843;51.320;12.340;2022-07-06T11:07:37;1.50;;;0.60;;
38037;SDS011;23843;51.320;12.340;2022-07-06T11:10:14;0.47;;;0.47;;
38037;SDS011;23843;51.320;12.340;2022-07-06T11:12:41;0.45;;;0.45;;
38037;SDS011;23843;51.320;12.340;2022-07-06T11:15:11;0.77;;;0.40;;
38037;SDS011;23843;51.320;12.340;2022-07-06T11:17:36;1.02;;;0.50;;
38037;SDS011;23843;51.320;12.340;2022-07-06T11:20:08;0.43;;;0.43;;
38037;SDS011;23843;51.320;12.340;2022-07-06T11:22:35;0.47;;;0.40;;
38037;SDS011;23843;51.320;12.340;2022-07-06T11:25:02;0.50;;;0.40;;
38037;SDS011;23843;51.320;12.340;2022-07-06T11:27:28;0.70;;;0.60;;
38037;SDS011;23843;51.320;12.340;2022-07-06T11:29:54;0.80;;;0.68;;
38037;SDS011;23843;51.320;12.340;2022-07-06T11:32:24;0.50;;;0.50;;
38037;SDS011;23843;51.320;12.340;2022-07-06T11:34:51;1.98;;;0.70;;
38037;SDS011;23843;51.320;12.340;2022-07-06T11:37:17;0.70;;;0.60;;
38037;SDS011;23843;51.320;12.340;2022-07-06T11:39:43;0.40;;;0.40;;
38037;SDS011;23843;51.320;12.340;2022-07-06T11:42:11;0.40;;;0.40;;
38037;SDS011;23843;51.320;12.340;2022-07-06T11:44:38;0.35;;;0.35;;
38037;SDS011;23843;51.320;12.340;2022-07-06T11:47:06;0.20;;;0.20;;
38037;SDS011;23843;51.320;12.340;2022-07-06T11:49:35;1.23;;;0.50;;
38037;SDS011;23843;51.320;12.340;2022-07-06T11:52:04;0.60;;;0.40;;
38037;SDS011;23843;51.320;12.340;2022-07-06T11:54:31;0.20;;;0.20;;
38037;SDS011;23843;51.320;12.340;2022-07-06T11:56:58;0.20;;;0.20;;
38037;SDS011;23843;51.320;12.340;2022-07-06T11:59:24;0.30;;;0.30;;
38037;SDS011;23843;51.320;12.340;2022-07-06T12:01:57;0.75;;;0.40;;
38037;SDS011;23843;51.320;12.340;2022-07-06T12:04:23;0.40;;;0.40;;
38037;SDS011;23843;51.320;12.340;2022-07-06T12:06:51;0.52;;;0.30;;
38037;SDS011;23843;51.320;12.340;2022-07-06T12:09:17;0.77;;;0.77;;
38037;SDS011;23843;51.320;12.340;2022-07-06T12:11:44;0.50;;;0.50;;
38037;SDS011;23843;51.320;12.340;2022-07-06T12:14:13;0.80;;;0.40;;
38037;SDS011;23843;51.320;12.340;2022-07-06T12:16:40;0.40;;;0.40;;
38037;SDS011;23843;51.320;12.340;2022-07-06T12:19:06;0.30;;;0.30;;
38037;SDS011;23843;51.320;12.340;2022-07-06T12:21:32;0.30;;;0.30;;
38037;SDS011;23843;51.320;12.340;2022-07-06T12:24:00;0.40;;;0.40;;
38037;SDS011;23843;51.320;12.340;2022-07-06T12:26:26;0.40;;;0.40;;
38037;SDS011;23843;51.320;12.340;2022-07-06T12:28:59;0.60;;;0.40;;
38037;SDS011;23843;51.320;12.340;2022-07-06T12:31:31;0.50;;;0.50;;
38037;SDS011;23843;51.320;12.340;2022-07-06T12:33:58;0.40;;;0.40;;
38037;SDS011;23843;51.320;12.340;2022-07-06T12:36:23;0.38;;;0.38;;
38037;SDS011;23843;51.320;12.340;2022-07-06T12:38:49;0.38;;;0.38;;
38037;SDS011;23843;51.320;12.340;2022-07-06T12:44:06;0.32;;;0.32;;
38037;SDS011;23843;51.320;12.340;2022-07-06T12:46:34;0.32;;;0.30;;
38037;SDS011;23843;51.320;12.340;2022-07-06T12:49:01;0.80;;;0.63;;
38037;SDS011;23843;51.320;12.340;2022-07-06T12:51:50;0.73;;;0.73;;
38037;SDS011;23843;51.320;12.340;2022-07-06T12:54:17;0.80;;;0.50;;
38037;SDS011;23843;51.320;12.340;2022-07-06T12:57:03;0.70;;;0.70;;
38037;SDS011;23843;51.320;12.340;2022-07-06T12:59:31;0.63;;;0.63;;
38037;SDS011;23843;51.320;12.340;2022-07-06T13:01:58;0.40;;;0.40;;
38037;SDS011;23843;51.320;12.340;2022-07-06T13:04:24;0.50;;;0.50;;
38037;SDS011;23843;51.320;12.340;2022-07-06T13:06:50;0.30;;;0.30;;
38037;SDS011;23843;51.320;12.340;2022-07-06T13:09:15;0.40;;;0.40;;
38037;SDS011;23843;51.320;12.340;2022-07-06T13:11:44;0.40;;;0.40;;
38037;SDS011;23843;51.320;12.340;2022-07-06T13:14:11;0.60;;;0.60;;
38037;SDS011;23843;51.320;12.340;2022-07-06T13:16:36;0.50;;;0.50;;
38037;SDS011;23843;51.320;12.340;2022-07-06T13:19:02;0.30;;;0.30;;
38037;SDS011;23843;51.320;12.340;2022-07-06T13:21:28;0.30;;;0.30;;
38037;SDS011;23843;51.320;12.340;2022-07-06T13:23:54;0.30;;;0.30;;
38037;SDS011;23843;51.320;12.340;2022-07-06T13:26:19;0.30;;;0.30;;
38037;SDS011;23843;51.320;12.340;2022-07-06T13:28:45;0.20;;;0.20;;
38037;SDS011;23843;51.320;12.340;2022-07-06T13:31:12;0.28;;;0.28;;
38037;SDS011;23843;51.320;12.340;2022-07-06T13:33:37;0.30;;;0.28;;
38037;SDS011;23843;51.320;12.340;2022-07-06T13:36:03;0.47;;;0.30;;
38037;SDS011;23843;51.320;12.340;2022-07-06T13:38:29;1.85;;;0.30;;
38037;SDS011;23843;51.320;12.340;2022-07-06T13:40:54;0.35;;;0.35;;
38037;SDS011;23843;51.320;12.340;2022-07-06T13:43:20;0.45;;;0.20;;
38037;SDS011;23843;51.320;12.340;2022-07-06T13:45:45;0.20;;;0.20;;
38037;SDS011;23843;51.320;12.340;2022-07-06T13:48:12;0.28;;;0.20;;
38037;SDS011;23843;51.320;12.340;2022-07-06T13:50:37;0.50;;;0.40;;
38037;SDS011;23843;51.320;12.340;2022-07-06T13:53:04;0.63;;;0.50;;
38037;SDS011;23843;51.320;12.340;2022-07-06T13:55:29;0.45;;;0.40;;
38037;SDS011;23843;51.320;12.340;2022-07-06T13:57:55;0.40;;;0.20;;
38037;SDS011;23843;51.320;12.340;2022-07-06T14:00:21;0.40;;;0.20;;
38037;SDS011;23843;51.320;12.340;2022-07-06T14:02:46;0.10;;;0.10;;
38037;SDS011;23843;51.320;12.340;2022-07-06T14:05:13;0.20;;;0.20;;
38037;SDS011;23843;51.320;12.340;2022-07-06T14:07:39;0.32;;;0.20;;
38037;SDS011;23843;51.320;12.340;2022-07-06T14:10:05;0.38;;;0.38;;
38037;SDS011;23843;51.320;12.340;2022-07-06T14:12:30;0.20;;;0.20;;
38037;SDS011;23843;51.320;12.340;2022-07-06T14:14:56;0.17;;;0.17;;
38037;SDS011;23843;51.320;12.340;2022-07-06T14:17:21;0.10;;;0.10;;
38037;SDS011;23843;51.320;12.340;2022-07-06T14:19:49;0.40;;;0.40;;
38037;SDS011;23843;51.320;12.340;2022-07-06T14:22:15;0.60;;;0.60;;
38037;SDS011;23843;51.320;12.340;2022-07-06T14:24:41;0.30;;;0.30;;
38037;SDS011;23843;51.320;12.340;2022-07-06T14:27:06;0.30;;;0.30;;
38037;SDS011;23843;51.320;12.340;2022-07-06T14:29:32;0.30;;;0.30;;
38037;SDS011;23843;51.320;12.340;2022-07-06T14:31:57;0.40;;;0.40;;
38037;SDS011;23843;51.320;12.340;2022-07-06T14:34:23;0.17;;;0.17;;